createdAt,value
2022-08-30T00:01:05.865Z,2.28
2022-08-30T00:02:08.981Z,1.98
2022-08-30T00:03:14.754Z,2.30
2022-08-30T00:04:16.663Z,2.17
2022-08-30T00:05:19.784Z,2.10
2022-08-30T00:06:22.581Z,2.00
2022-08-30T00:07:25.619Z,1.95
2022-08-30T00:08:27.274Z,2.15
2022-08-30T00:09:30.005Z,2.33
2022-08-30T00:10:32.329Z,2.30
2022-08-30T00:11:36.744Z,1.90
2022-08-30T00:12:38.474Z,2.50
2022-08-30T00:13:42.709Z,2.30
2022-08-30T00:14:44.351Z,2.10
2022-08-30T00:15:47.062Z,2.30
2022-08-30T00:16:50.052Z,1.95
2022-08-30T00:17:54.439Z,2.35
2022-08-30T00:18:56.299Z,2.33
2022-08-30T00:19:59.013Z,2.13
2022-08-30T00:21:01.715Z,2.35
2022-08-30T00:22:04.516Z,2.53
2022-08-30T00:23:06.512Z,2.20
2022-08-30T00:24:09.366Z,2.25
2022-08-30T00:25:12.441Z,2.00
2022-08-30T00:26:15.065Z,2.33
2022-08-30T00:27:16.800Z,2.03
2022-08-30T00:28:19.893Z,2.08
2022-08-30T00:29:22.566Z,2.40
2022-08-30T00:30:24.405Z,2.15
2022-08-30T00:31:27.087Z,2.38
2022-08-30T00:32:29.582Z,2.30
2022-08-30T00:33:34.309Z,2.13
2022-08-30T00:34:35.977Z,2.70
2022-08-30T00:35:39.969Z,2.55
2022-08-30T00:36:41.659Z,2.05
2022-08-30T00:37:44.402Z,2.03
2022-08-30T00:38:46.038Z,1.88
2022-08-30T00:39:49.021Z,2.35
2022-08-30T00:40:52.452Z,2.47
2022-08-30T00:41:55.880Z,2.22
2022-08-30T00:43:14.164Z,2.75
2022-08-30T00:44:16.925Z,2.30
2022-08-30T00:45:22.019Z,1.85
2022-08-30T00:46:25.295Z,2.38
2022-08-30T00:47:27.444Z,2.33
2022-08-30T00:48:31.816Z,2.33
2022-08-30T00:49:36.401Z,2.28
2022-08-30T00:50:41.344Z,2.30
2022-08-30T00:51:43.085Z,2.40
2022-08-30T00:52:48.337Z,2.35
2022-08-30T00:53:55.212Z,2.35
2022-08-30T00:54:56.831Z,2.50
2022-08-30T00:56:00.762Z,2.45
2022-08-30T00:57:03.500Z,2.53
2022-08-30T00:58:08.499Z,1.77
2022-08-30T00:59:10.471Z,2.03
2022-08-30T01:00:15.637Z,2.22
2022-08-30T01:01:17.814Z,2.15
2022-08-30T01:02:24.902Z,2.03
2022-08-30T01:03:28.470Z,2.00
2022-08-30T01:04:31.631Z,2.10
2022-08-30T01:05:35.261Z,2.15
2022-08-30T01:06:39.869Z,2.53
2022-08-30T01:07:41.992Z,2.33
2022-08-30T01:08:45.252Z,2.25
2022-08-30T01:09:47.061Z,2.45
2022-08-30T01:10:50.659Z,2.80
2022-08-30T01:11:52.556Z,2.30
2022-08-30T01:12:55.245Z,2.63
2022-08-30T01:13:58.049Z,2.60
2022-08-30T01:15:01.461Z,2.30
2022-08-30T01:16:04.612Z,2.40
2022-08-30T01:17:07.628Z,2.28
2022-08-30T01:18:11.585Z,2.10
2022-08-30T01:19:24.656Z,2.50
2022-08-30T01:20:28.887Z,2.63
2022-08-30T01:21:37.414Z,2.53
2022-08-30T01:22:44.019Z,2.42
2022-08-30T01:23:53.699Z,2.08
2022-08-30T01:24:56.871Z,2.25
2022-08-30T01:26:00.293Z,2.20
2022-08-30T01:27:01.998Z,3.25
2022-08-30T01:28:07.691Z,2.55
2022-08-30T01:29:14.638Z,2.15
2022-08-30T01:30:17.526Z,2.60
2022-08-30T01:31:20.356Z,2.50
2022-08-30T01:32:29.414Z,2.70
2022-08-30T01:33:32.401Z,2.47
2022-08-30T01:34:35.427Z,2.38
2022-08-30T01:35:44.339Z,2.42
2022-08-30T01:36:47.545Z,2.67
2022-08-30T01:37:49.462Z,2.65
2022-08-30T01:38:58.327Z,2.58
2022-08-30T01:40:00.826Z,2.50
2022-08-30T01:41:11.561Z,2.60
2022-08-30T01:42:13.377Z,2.78
2022-08-30T01:43:17.964Z,2.72
2022-08-30T01:44:20.389Z,2.70
2022-08-30T01:45:23.106Z,2.70
2022-08-30T01:46:26.854Z,2.90
2022-08-30T01:47:29.626Z,2.63
2022-08-30T01:48:31.494Z,4.18
2022-08-30T01:49:34.104Z,3.03
2022-08-30T01:50:36.368Z,2.65
2022-08-30T01:51:43.376Z,2.88
2022-08-30T01:52:45.087Z,2.67
2022-08-30T01:53:48.032Z,2.80
2022-08-30T01:54:51.833Z,2.65
2022-08-30T01:55:54.427Z,2.60
2022-08-30T01:56:56.215Z,2.70
2022-08-30T01:57:59.426Z,2.88
2022-08-30T01:59:03.134Z,2.78
2022-08-30T02:00:08.295Z,2.72
2022-08-30T02:01:13.016Z,2.67
2022-08-30T02:02:17.007Z,2.75
2022-08-30T02:03:19.910Z,2.90
2022-08-30T02:04:22.919Z,2.90
2022-08-30T02:05:25.666Z,3.00
2022-08-30T02:06:28.305Z,2.45
2022-08-30T02:07:30.072Z,2.72
2022-08-30T02:08:32.880Z,2.50
2022-08-30T02:09:37.957Z,3.45
2022-08-30T02:10:42.074Z,3.45
2022-08-30T02:11:44.608Z,3.40
2022-08-30T02:12:47.936Z,3.17
2022-08-30T02:13:49.669Z,3.10
2022-08-30T02:14:52.564Z,2.85
2022-08-30T02:15:54.554Z,2.88
2022-08-30T02:16:57.335Z,3.00
2022-08-30T02:17:58.984Z,3.20
2022-08-30T02:19:04.336Z,2.50
2022-08-30T02:20:07.532Z,2.72
2022-08-30T02:21:11.260Z,3.28
2022-08-30T02:22:13.409Z,2.78
2022-08-30T02:23:16.559Z,2.60
2022-08-30T02:24:18.315Z,3.00
2022-08-30T02:25:21.726Z,2.70
2022-08-30T02:26:25.116Z,2.60
2022-08-30T02:27:27.996Z,3.53
2022-08-30T02:28:29.678Z,2.72
2022-08-30T02:29:33.248Z,3.53
2022-08-30T02:30:35.429Z,2.97
2022-08-30T02:31:38.249Z,2.67
2022-08-30T02:32:41.436Z,2.60
2022-08-30T02:33:44.454Z,3.10
2022-08-30T02:34:47.237Z,3.28
2022-08-30T02:35:49.866Z,2.95
2022-08-30T02:36:51.722Z,3.17
2022-08-30T02:37:54.640Z,2.90
2022-08-30T02:38:56.688Z,3.33
2022-08-30T02:39:59.289Z,3.13
2022-08-30T02:41:02.261Z,3.25
2022-08-30T02:42:07.359Z,2.92
2022-08-30T02:43:09.049Z,3.00
2022-08-30T02:44:11.996Z,3.03
2022-08-30T02:45:15.307Z,3.33
2022-08-30T02:46:20.849Z,2.90
2022-08-30T02:47:22.564Z,3.28
2022-08-30T02:48:25.444Z,3.40
2022-08-30T02:49:33.622Z,3.38
2022-08-30T02:50:40.679Z,2.70
2022-08-30T02:51:42.417Z,3.50
2022-08-30T02:52:48.333Z,3.22
2022-08-30T02:53:50.414Z,3.40
2022-08-30T02:54:54.498Z,3.58
2022-08-30T02:55:56.229Z,3.10
2022-08-30T02:57:04.502Z,3.65
2022-08-30T02:58:08.454Z,3.80
2022-08-30T02:59:11.244Z,3.80
2022-08-30T03:00:16.356Z,3.45
2022-08-30T03:01:19.353Z,3.33
2022-08-30T03:02:22.110Z,3.33
2022-08-30T03:03:25.469Z,3.20
2022-08-30T03:04:27.148Z,3.15
2022-08-30T03:05:30.316Z,3.08
2022-08-30T03:06:32.232Z,3.13
2022-08-30T03:07:35.110Z,3.50
2022-08-30T03:08:37.020Z,3.67
2022-08-30T03:09:40.709Z,3.25
2022-08-30T03:10:42.320Z,3.83
2022-08-30T03:11:46.127Z,3.60
2022-08-30T03:12:48.941Z,3.70
2022-08-30T03:13:51.912Z,4.20
2022-08-30T03:14:55.486Z,4.00
2022-08-30T03:15:57.535Z,3.70
2022-08-30T03:17:00.362Z,3.45
2022-08-30T03:18:02.427Z,3.78
2022-08-30T03:19:05.102Z,3.67
2022-08-30T03:20:08.706Z,4.25
2022-08-30T03:21:12.611Z,3.78
2022-08-30T03:22:14.314Z,3.60
2022-08-30T03:23:21.955Z,3.70
2022-08-30T03:24:23.891Z,3.38
2022-08-30T03:25:27.151Z,4.00
2022-08-30T03:26:28.868Z,3.97
2022-08-30T03:27:31.911Z,3.67
2022-08-30T03:28:33.998Z,3.95
2022-08-30T03:29:39.208Z,4.00
2022-08-30T03:30:40.846Z,3.72
2022-08-30T03:31:53.350Z,4.10
2022-08-30T03:32:57.042Z,3.65
2022-08-30T03:33:58.731Z,3.88
2022-08-30T03:35:01.711Z,3.90
2022-08-30T03:36:04.170Z,4.10
2022-08-30T03:37:12.525Z,3.72
2022-08-30T03:38:14.185Z,3.92
2022-08-30T03:39:17.473Z,4.03
2022-08-30T03:40:21.941Z,4.10
2022-08-30T03:41:30.731Z,3.72
2022-08-30T03:42:34.405Z,4.10
2022-08-30T03:43:37.114Z,3.60
2022-08-30T03:44:40.058Z,3.92
2022-08-30T03:45:42.965Z,4.03
2022-08-30T03:46:45.139Z,3.92
2022-08-30T03:47:47.789Z,4.10
2022-08-30T03:48:49.408Z,4.20
2022-08-30T03:49:52.133Z,4.07
2022-08-30T03:50:53.773Z,3.70
2022-08-30T03:51:56.404Z,3.78
2022-08-30T03:52:58.385Z,4.32
2022-08-30T03:54:01.513Z,3.95
2022-08-30T03:55:03.860Z,4.15
2022-08-30T03:56:07.140Z,4.65
2022-08-30T03:57:08.777Z,3.65
2022-08-30T03:58:19.239Z,4.20
2022-08-30T03:59:21.029Z,3.65
2022-08-30T04:00:25.003Z,3.90
2022-08-30T04:01:26.767Z,3.90
2022-08-30T04:02:29.484Z,4.22
2022-08-30T04:03:31.575Z,3.85
2022-08-30T04:04:34.228Z,3.90
2022-08-30T04:05:35.871Z,4.05
2022-08-30T04:06:38.488Z,3.42
2022-08-30T04:07:40.136Z,3.85
2022-08-30T04:08:43.228Z,3.67
2022-08-30T04:09:47.329Z,3.90
2022-08-30T04:10:50.729Z,4.28
2022-08-30T04:11:52.368Z,4.80
2022-08-30T04:12:55.017Z,4.50
2022-08-30T04:13:56.812Z,4.75
2022-08-30T04:14:59.517Z,4.13
2022-08-30T04:16:03.027Z,4.20
2022-08-30T04:17:05.822Z,3.60
2022-08-30T04:18:08.600Z,4.30
2022-08-30T04:19:11.558Z,4.13
2022-08-30T04:20:13.233Z,3.65
2022-08-30T04:21:16.157Z,4.10
2022-08-30T04:22:17.824Z,4.53
2022-08-30T04:23:20.613Z,4.55
2022-08-30T04:24:22.214Z,3.97
2022-08-30T04:25:24.819Z,3.63
2022-08-30T04:26:27.640Z,4.40
2022-08-30T04:27:32.363Z,4.57
2022-08-30T04:28:35.072Z,4.35
2022-08-30T04:29:37.670Z,4.18
2022-08-30T04:30:40.121Z,4.32
2022-08-30T04:31:44.198Z,3.80
2022-08-30T04:32:46.089Z,4.25
2022-08-30T04:33:49.225Z,4.60
2022-08-30T04:34:50.933Z,4.70
2022-08-30T04:35:53.661Z,4.53
2022-08-30T04:36:55.724Z,4.00
2022-08-30T04:37:58.300Z,4.57
2022-08-30T04:38:59.885Z,4.47
2022-08-30T04:40:03.085Z,4.30
2022-08-30T04:41:09.510Z,4.53
2022-08-30T04:42:12.345Z,4.43
2022-08-30T04:43:14.173Z,4.53
2022-08-30T04:44:19.483Z,4.63
2022-08-30T04:45:21.802Z,4.65
2022-08-30T04:46:24.523Z,4.60
2022-08-30T04:47:27.648Z,4.55
2022-08-30T04:48:30.226Z,4.40
2022-08-30T04:49:33.088Z,3.80
2022-08-30T04:50:34.768Z,4.35
2022-08-30T04:51:37.399Z,4.38
2022-08-30T04:52:39.156Z,4.20
2022-08-30T04:53:42.140Z,4.53
2022-08-30T04:54:43.794Z,4.07
2022-08-30T04:55:46.425Z,4.00
2022-08-30T04:56:48.073Z,4.28
2022-08-30T04:57:50.679Z,4.93
2022-08-30T04:58:54.389Z,5.05
2022-08-30T04:59:57.057Z,4.43
2022-08-30T05:00:58.720Z,3.70
2022-08-30T05:02:01.583Z,4.30
2022-08-30T05:03:04.896Z,4.10
2022-08-30T05:04:07.511Z,4.53
2022-08-30T05:05:28.759Z,4.75
2022-08-30T05:06:32.052Z,4.28
2022-08-30T05:07:34.115Z,4.22
2022-08-30T05:08:36.733Z,4.95
2022-08-30T05:09:38.343Z,4.68
2022-08-30T05:10:41.794Z,4.18
2022-08-30T05:11:44.005Z,4.57
2022-08-30T05:12:46.650Z,4.40
2022-08-30T05:13:49.714Z,3.40
2022-08-30T05:14:51.913Z,4.05
2022-08-30T05:15:54.597Z,4.10
2022-08-30T05:16:56.365Z,3.70
2022-08-30T05:17:58.991Z,3.28
2022-08-30T05:19:02.154Z,3.55
2022-08-30T05:20:05.596Z,3.60
2022-08-30T05:21:09.587Z,3.70
2022-08-30T05:22:12.715Z,2.90
2022-08-30T05:23:14.381Z,3.10
2022-08-30T05:24:16.940Z,2.85
2022-08-30T05:25:19.439Z,2.60
2022-08-30T05:26:25.228Z,3.10
2022-08-30T05:27:27.027Z,2.78
2022-08-30T05:28:29.672Z,2.70
2022-08-30T05:29:31.606Z,2.83
2022-08-30T05:30:35.903Z,2.80
2022-08-30T05:31:37.911Z,2.90
2022-08-30T05:32:40.519Z,2.47
2022-08-30T05:33:42.708Z,3.08
2022-08-30T05:34:46.652Z,2.80
2022-08-30T05:35:48.394Z,2.53
2022-08-30T05:36:51.038Z,2.90
2022-08-30T05:37:52.912Z,2.90
2022-08-30T05:38:55.777Z,2.90
2022-08-30T05:39:57.474Z,2.72
2022-08-30T05:41:00.139Z,2.65
2022-08-30T05:42:01.850Z,2.60
2022-08-30T05:43:04.476Z,2.75
2022-08-30T05:44:08.093Z,3.10
2022-08-30T05:45:12.203Z,2.53
2022-08-30T05:46:19.128Z,2.13
2022-08-30T05:47:22.653Z,2.80
2022-08-30T05:48:25.260Z,2.40
2022-08-30T05:49:26.862Z,2.80
2022-08-30T05:50:30.765Z,2.30
2022-08-30T05:51:34.648Z,2.45
2022-08-30T05:52:37.919Z,2.58
2022-08-30T05:53:40.801Z,2.33
2022-08-30T05:54:43.385Z,2.42
2022-08-30T05:55:45.053Z,2.20
2022-08-30T05:56:47.624Z,1.77
2022-08-30T05:57:49.221Z,2.15
2022-08-30T05:58:52.222Z,2.15
2022-08-30T05:59:53.841Z,1.90
2022-08-30T06:00:56.441Z,2.22
2022-08-30T06:01:58.556Z,1.63
2022-08-30T06:03:02.342Z,2.05
2022-08-30T06:04:05.549Z,2.28
2022-08-30T06:05:09.306Z,2.10
2022-08-30T06:06:12.587Z,1.90
2022-08-30T06:07:16.444Z,2.13
2022-08-30T06:08:20.607Z,1.90
2022-08-30T06:09:22.351Z,1.80
2022-08-30T06:10:24.931Z,2.10
2022-08-30T06:11:27.612Z,1.73
2022-08-30T06:12:30.245Z,1.90
2022-08-30T06:13:32.298Z,1.90
2022-08-30T06:14:34.880Z,2.15
2022-08-30T06:15:37.268Z,2.00
2022-08-30T06:16:41.097Z,2.00
2022-08-30T06:17:42.717Z,1.95
2022-08-30T06:18:45.666Z,2.10
2022-08-30T06:19:47.255Z,1.95
2022-08-30T06:20:51.203Z,2.13
2022-08-30T06:21:54.151Z,1.90
2022-08-30T06:22:56.724Z,2.47
2022-08-30T06:23:58.993Z,2.25
2022-08-30T06:25:01.549Z,2.65
2022-08-30T06:26:04.179Z,1.92
2022-08-30T06:27:07.348Z,2.95
2022-08-30T06:28:09.772Z,2.47
2022-08-30T06:29:18.226Z,2.50
2022-08-30T06:30:19.979Z,2.05
2022-08-30T06:31:24.360Z,2.03
2022-08-30T06:32:26.019Z,2.28
2022-08-30T06:33:28.644Z,2.80
2022-08-30T06:34:30.280Z,2.28
2022-08-30T06:35:38.282Z,2.20
2022-08-30T06:36:48.674Z,2.30
2022-08-30T06:37:52.701Z,2.92
2022-08-30T06:38:56.610Z,2.70
2022-08-30T06:40:00.293Z,2.63
2022-08-30T06:41:05.535Z,2.20
2022-08-30T06:42:08.313Z,2.65
2022-08-30T06:43:11.141Z,2.80
2022-08-30T06:44:13.745Z,2.38
2022-08-30T06:45:16.264Z,2.88
2022-08-30T06:46:22.339Z,2.38
2022-08-30T06:47:24.130Z,2.53
2022-08-30T06:48:26.785Z,2.88
2022-08-30T06:49:29.411Z,2.40
2022-08-30T06:50:31.854Z,2.50
2022-08-30T06:51:37.214Z,2.35
2022-08-30T06:52:43.039Z,2.00
2022-08-30T06:53:46.953Z,2.17
2022-08-30T06:54:49.601Z,2.25
2022-08-30T06:55:57.752Z,2.65
2022-08-30T06:57:00.448Z,2.08
2022-08-30T06:58:04.133Z,2.30
2022-08-30T06:59:06.031Z,2.42
2022-08-30T07:00:11.982Z,2.42
2022-08-30T07:01:14.915Z,2.55
2022-08-30T07:02:17.586Z,2.38
2022-08-30T07:03:19.461Z,2.38
2022-08-30T07:04:22.157Z,2.70
2022-08-30T07:05:23.911Z,2.58
2022-08-30T07:06:26.928Z,2.42
2022-08-30T07:07:28.713Z,2.10
2022-08-30T07:08:31.897Z,2.17
2022-08-30T07:09:35.432Z,2.35
2022-08-30T07:10:39.476Z,2.33
2022-08-30T07:11:42.294Z,2.17
2022-08-30T07:12:44.012Z,2.65
2022-08-30T07:13:46.604Z,2.70
2022-08-30T07:14:48.829Z,2.30
2022-08-30T07:15:52.669Z,1.98
2022-08-30T07:16:55.311Z,2.42
2022-08-30T07:18:15.741Z,2.50
2022-08-30T07:19:20.739Z,2.45
2022-08-30T07:20:23.850Z,2.00
2022-08-30T07:21:28.938Z,2.15
2022-08-30T07:22:30.566Z,1.88
2022-08-30T07:23:33.772Z,1.33
2022-08-30T07:24:37.720Z,2.15
2022-08-30T07:25:40.386Z,1.77
2022-08-30T07:26:46.705Z,1.42
2022-08-30T07:27:50.151Z,2.33
2022-08-30T07:28:55.896Z,1.90
2022-08-30T07:29:58.806Z,1.65
2022-08-30T07:31:02.043Z,1.70
2022-08-30T07:32:04.141Z,1.85
2022-08-30T07:33:06.767Z,1.30
2022-08-30T07:34:10.127Z,1.70
2022-08-30T07:35:12.099Z,1.33
2022-08-30T07:36:17.128Z,1.10
2022-08-30T07:37:18.791Z,1.52
2022-08-30T07:38:21.441Z,1.30
2022-08-30T07:39:23.058Z,2.00
2022-08-30T07:40:27.330Z,1.27
2022-08-30T07:41:30.702Z,1.30
2022-08-30T07:42:33.281Z,1.25
2022-08-30T07:43:35.834Z,1.38
2022-08-30T07:44:38.419Z,1.00
2022-08-30T07:45:40.133Z,1.20
2022-08-30T07:46:42.854Z,1.40
2022-08-30T07:47:45.523Z,1.00
2022-08-30T07:48:48.103Z,1.35
2022-08-30T07:49:49.713Z,1.30
2022-08-30T07:50:57.065Z,1.60
2022-08-30T07:51:59.905Z,1.52
2022-08-30T07:53:03.389Z,1.45
2022-08-30T07:54:08.011Z,1.55
2022-08-30T07:55:10.205Z,1.35
2022-08-30T07:56:14.643Z,1.20
2022-08-30T07:57:16.318Z,1.02
2022-08-30T07:58:19.411Z,1.38
2022-08-30T07:59:22.115Z,1.02
2022-08-30T08:00:23.719Z,1.00
2022-08-30T08:01:26.327Z,0.80
2022-08-30T08:02:28.291Z,1.73
2022-08-30T08:03:31.217Z,1.52
2022-08-30T08:04:35.489Z,1.42
2022-08-30T08:05:38.793Z,1.00
2022-08-30T08:06:41.643Z,0.70
2022-08-30T08:07:43.385Z,1.00
2022-08-30T08:08:46.431Z,1.00
2022-08-30T08:09:48.074Z,1.27
2022-08-30T08:10:50.660Z,1.10
2022-08-30T08:11:53.631Z,0.93
2022-08-30T08:12:56.197Z,0.93
2022-08-30T08:13:57.870Z,1.20
2022-08-30T08:15:02.094Z,1.00
2022-08-30T08:16:09.511Z,1.27
2022-08-30T08:17:11.613Z,1.48
2022-08-30T08:18:14.186Z,1.55
2022-08-30T08:19:16.086Z,1.20
2022-08-30T08:20:19.898Z,1.23
2022-08-30T08:21:24.456Z,1.38
2022-08-30T08:22:26.101Z,1.17
2022-08-30T08:23:29.233Z,1.23
2022-08-30T08:24:31.824Z,1.05
2022-08-30T08:25:35.348Z,1.40
2022-08-30T08:26:37.603Z,1.15
2022-08-30T08:27:41.716Z,1.13
2022-08-30T08:28:46.411Z,1.10
2022-08-30T08:29:48.062Z,0.93
2022-08-30T08:30:51.016Z,0.90
2022-08-30T08:31:53.013Z,0.88
2022-08-30T08:32:57.010Z,1.00
2022-08-30T08:35:03.964Z,0.93
2022-08-30T08:36:09.330Z,1.38
2022-08-30T08:37:12.717Z,1.35
2022-08-30T08:38:14.429Z,1.00
2022-08-30T08:39:17.615Z,1.35
2022-08-30T08:40:20.036Z,1.02
2022-08-30T08:41:34.038Z,1.10
2022-08-30T08:42:48.286Z,0.98
2022-08-30T08:43:51.228Z,1.40
2022-08-30T08:44:57.983Z,1.00
2022-08-30T08:46:05.595Z,1.52
2022-08-30T08:47:13.819Z,0.88
2022-08-30T08:48:32.100Z,1.00
2022-08-30T08:49:51.238Z,1.27
2022-08-30T08:51:11.587Z,1.17
2022-08-30T08:52:40.027Z,1.10
2022-08-30T08:53:47.273Z,1.00
2022-08-30T08:54:54.080Z,0.88
2022-08-30T08:55:57.937Z,1.27
2022-08-30T08:57:00.724Z,1.27
2022-08-30T08:58:03.807Z,1.30
2022-08-30T08:59:09.109Z,1.20
2022-08-30T09:00:13.792Z,1.20
2022-08-30T09:01:19.281Z,1.50
2022-08-30T09:02:24.937Z,1.63
2022-08-30T09:03:30.005Z,1.48
2022-08-30T09:04:34.692Z,1.35
2022-08-30T09:05:39.365Z,1.20
2022-08-30T09:06:48.585Z,1.30
2022-08-30T09:07:53.793Z,1.20
2022-08-30T09:08:55.579Z,1.10
2022-08-30T09:10:00.524Z,0.90
2022-08-30T09:11:04.316Z,1.23
2022-08-30T09:12:08.566Z,1.40
2022-08-30T09:13:13.697Z,1.42
2022-08-30T09:14:20.532Z,1.13
2022-08-30T09:15:26.148Z,1.30
2022-08-30T09:16:51.073Z,1.20
2022-08-30T09:17:54.911Z,1.15
2022-08-30T09:19:00.526Z,1.58
2022-08-30T09:20:02.626Z,1.40
2022-08-30T09:21:08.045Z,1.30
2022-08-30T09:22:23.072Z,1.10
2022-08-30T09:23:28.313Z,1.10
2022-08-30T09:24:37.834Z,1.00
2022-08-30T09:25:51.519Z,1.27
2022-08-30T09:26:53.213Z,1.25
2022-08-30T09:27:57.185Z,1.60
2022-08-30T09:29:00.910Z,1.20
2022-08-30T09:30:11.270Z,1.33
2022-08-30T09:31:20.863Z,1.10
2022-08-30T09:32:25.814Z,1.30
2022-08-30T09:33:28.682Z,1.40
2022-08-30T09:34:32.920Z,1.55
2022-08-30T09:35:37.611Z,1.60
2022-08-30T09:36:41.183Z,1.20
2022-08-30T09:37:47.649Z,1.10
2022-08-30T09:38:58.413Z,1.33
2022-08-30T09:40:00.408Z,1.40
2022-08-30T09:41:36.171Z,1.67
2022-08-30T09:42:39.169Z,1.20
2022-08-30T09:43:41.820Z,1.30
2022-08-30T09:44:43.429Z,1.40
2022-08-30T09:45:49.855Z,1.60
2022-08-30T09:46:53.310Z,1.63
2022-08-30T09:47:55.877Z,1.23
2022-08-30T09:48:57.477Z,1.10
2022-08-30T09:50:06.194Z,1.10
2022-08-30T09:51:34.984Z,1.05
2022-08-30T09:52:53.223Z,1.35
2022-08-30T09:54:19.004Z,1.10
2022-08-30T09:55:31.837Z,0.90
2022-08-30T09:56:41.394Z,0.93
2022-08-30T09:57:48.474Z,1.40
2022-08-30T09:58:58.118Z,1.50
2022-08-30T10:00:05.202Z,1.13
2022-08-30T10:01:11.114Z,1.05
2022-08-30T10:02:30.747Z,1.60
2022-08-30T10:03:40.487Z,1.25
2022-08-30T10:04:48.086Z,1.23
2022-08-30T10:05:56.975Z,1.30
2022-08-30T10:07:05.526Z,1.48
2022-08-30T10:08:13.463Z,1.40
2022-08-30T10:09:22.913Z,1.48
2022-08-30T10:10:31.459Z,1.05
2022-08-30T10:11:39.121Z,1.50
2022-08-30T10:12:49.098Z,1.35
2022-08-30T10:14:08.657Z,1.50
2022-08-30T10:15:14.988Z,1.40
2022-08-30T10:16:26.311Z,1.50
2022-08-30T10:17:40.285Z,1.88
2022-08-30T10:18:48.887Z,1.50
2022-08-30T10:20:02.286Z,1.25
2022-08-30T10:21:07.549Z,1.15
2022-08-30T10:22:14.412Z,1.30
2022-08-30T10:23:20.511Z,1.23
2022-08-30T10:24:24.706Z,1.58
2022-08-30T10:25:30.086Z,1.50
2022-08-30T10:26:37.216Z,1.35
2022-08-30T10:27:44.903Z,1.50
2022-08-30T10:28:50.268Z,1.55
2022-08-30T10:29:59.227Z,1.50
2022-08-30T10:31:05.387Z,1.42
2022-08-30T10:32:16.063Z,1.60
2022-08-30T10:33:25.465Z,1.55
2022-08-30T10:34:30.344Z,1.58
2022-08-30T10:35:38.768Z,1.55
2022-08-30T10:36:43.312Z,1.48
2022-08-30T10:37:51.459Z,1.27
2022-08-30T10:38:54.374Z,1.60
2022-08-30T10:40:00.613Z,1.85
2022-08-30T10:41:13.553Z,1.55
2022-08-30T10:42:21.622Z,1.50
2022-08-30T10:43:26.396Z,1.40
2022-08-30T10:44:31.431Z,1.20
2022-08-30T10:45:37.233Z,1.08
2022-08-30T10:46:48.190Z,1.48
2022-08-30T10:47:55.195Z,1.55
2022-08-30T10:48:59.564Z,1.58
2022-08-30T10:50:07.244Z,1.40
2022-08-30T10:51:11.923Z,1.60
2022-08-30T10:52:23.272Z,1.30
2022-08-30T10:53:32.184Z,1.10
2022-08-30T10:54:38.441Z,1.58
2022-08-30T10:55:49.823Z,1.58
2022-08-30T10:56:54.097Z,1.15
2022-08-30T10:58:00.710Z,1.90
2022-08-30T10:59:05.789Z,1.63
2022-08-30T11:00:11.828Z,1.75
2022-08-30T11:01:51.972Z,1.67
2022-08-30T11:03:17.086Z,1.50
2022-08-30T11:04:45.620Z,1.90
2022-08-30T11:06:19.620Z,1.65
2022-08-30T11:07:28.527Z,1.27
2022-08-30T11:08:51.994Z,1.70
2022-08-30T11:10:17.527Z,1.50
2022-08-30T11:11:28.336Z,1.40
2022-08-30T11:12:36.031Z,1.55
2022-08-30T11:13:41.235Z,1.60
2022-08-30T11:14:44.339Z,1.70
2022-08-30T11:15:57.263Z,1.55
2022-08-30T11:17:00.503Z,2.50
2022-08-30T11:18:07.109Z,1.45
2022-08-30T11:19:15.779Z,1.33
2022-08-30T11:20:31.648Z,1.80
2022-08-30T11:21:38.988Z,1.65
2022-08-30T11:23:14.066Z,1.30
2022-08-30T11:24:17.943Z,1.60
2022-08-30T11:25:49.276Z,1.55
2022-08-30T11:27:02.281Z,1.40
2022-08-30T11:28:06.148Z,2.30
2022-08-30T11:29:10.165Z,1.90
2022-08-30T11:30:50.872Z,1.30
2022-08-30T11:31:53.312Z,1.27
2022-08-30T11:33:02.346Z,1.25
2022-08-30T11:34:04.977Z,1.38
2022-08-30T11:35:11.185Z,1.20
2022-08-30T11:37:09.838Z,1.15
2022-08-30T11:38:18.784Z,1.85
2022-08-30T11:39:44.708Z,2.08
2022-08-30T11:40:51.196Z,1.30
2022-08-30T11:42:12.102Z,1.35
2022-08-30T11:43:51.817Z,1.27
2022-08-30T11:45:36.802Z,1.20
2022-08-30T11:46:42.086Z,1.27
2022-08-30T11:47:48.776Z,1.38
2022-08-30T11:48:55.673Z,1.25
2022-08-30T11:50:05.765Z,1.48
2022-08-30T11:51:24.158Z,1.67
2022-08-30T11:52:46.729Z,1.75
2022-08-30T11:53:54.893Z,1.23
2022-08-30T11:55:09.144Z,1.55
2022-08-30T11:56:21.053Z,1.45
2022-08-30T11:57:29.763Z,1.10
2022-08-30T11:58:45.298Z,1.77
2022-08-30T11:59:53.736Z,1.10
2022-08-30T12:01:40.724Z,1.00
2022-08-30T12:02:50.086Z,1.27
2022-08-30T12:03:56.296Z,1.10
2022-08-30T12:04:59.544Z,1.30
2022-08-30T12:06:02.652Z,1.35
2022-08-30T12:07:07.781Z,1.60
2022-08-30T12:08:11.438Z,1.27
2022-08-30T12:10:04.481Z,1.63
2022-08-30T12:11:09.017Z,1.10
2022-08-30T12:12:32.714Z,1.33
2022-08-30T12:14:02.602Z,1.05
2022-08-30T12:15:04.554Z,1.10
2022-08-30T12:16:09.369Z,1.60
2022-08-30T12:17:33.885Z,1.30
2022-08-30T12:18:44.519Z,1.10
2022-08-30T12:19:50.158Z,1.35
2022-08-30T12:20:54.173Z,1.30
2022-08-30T12:21:58.225Z,1.20
2022-08-30T12:23:16.468Z,1.23
2022-08-30T12:24:22.170Z,1.00
2022-08-30T12:25:30.910Z,1.60
2022-08-30T12:26:36.174Z,1.33
2022-08-30T12:27:37.629Z,1.58
2022-08-30T12:28:41.979Z,1.00
2022-08-30T12:29:51.319Z,0.98
2022-08-30T12:30:54.504Z,1.20
2022-08-30T12:31:59.483Z,0.93
2022-08-30T12:33:01.274Z,1.50
2022-08-30T12:34:05.208Z,1.33
2022-08-30T12:35:07.466Z,1.30
2022-08-30T12:36:14.376Z,1.10
2022-08-30T12:37:23.517Z,1.65
2022-08-30T12:38:27.543Z,1.20
2022-08-30T12:39:31.901Z,1.10
2022-08-30T12:40:35.497Z,1.38
2022-08-30T12:41:43.656Z,1.35
2022-08-30T12:42:52.597Z,1.02
2022-08-30T12:43:54.225Z,1.08
2022-08-30T12:44:58.924Z,1.10
2022-08-30T12:46:07.484Z,1.10
2022-08-30T12:47:12.764Z,1.13
2022-08-30T12:48:18.602Z,1.30
2022-08-30T12:49:25.557Z,1.13
2022-08-30T12:50:30.309Z,1.30
2022-08-30T12:51:41.096Z,1.02
2022-08-30T12:52:44.355Z,1.00
2022-08-30T12:53:47.023Z,1.20
2022-08-30T12:54:53.993Z,1.10
2022-08-30T12:55:59.294Z,1.50
2022-08-30T12:57:18.958Z,1.48
2022-08-30T12:58:38.638Z,1.00
2022-08-30T12:59:58.144Z,1.17
2022-08-30T13:01:18.723Z,1.30
2022-08-30T13:02:22.866Z,1.50
2022-08-30T13:03:30.856Z,1.20
2022-08-30T13:04:33.910Z,1.55
2022-08-30T13:05:47.925Z,1.52
2022-08-30T13:06:52.652Z,1.33
2022-08-30T13:08:09.807Z,1.15
2022-08-30T13:09:23.965Z,1.00
2022-08-30T13:10:26.569Z,1.10
2022-08-30T13:11:29.663Z,1.13
2022-08-30T13:12:32.560Z,1.10
2022-08-30T13:13:38.173Z,1.10
2022-08-30T13:14:43.690Z,1.17
2022-08-30T13:15:49.136Z,1.10
2022-08-30T13:16:51.750Z,1.30
2022-08-30T13:18:13.249Z,1.15
2022-08-30T13:19:29.034Z,1.20
2022-08-30T13:20:33.040Z,1.17
2022-08-30T13:21:34.829Z,1.50
2022-08-30T13:22:39.235Z,1.55
2022-08-30T13:23:40.857Z,1.30
2022-08-30T13:24:43.415Z,1.50
2022-08-30T13:25:44.999Z,1.20
2022-08-30T13:26:47.998Z,1.10
2022-08-30T13:27:49.594Z,1.15
2022-08-30T13:28:55.176Z,1.38
2022-08-30T13:29:58.583Z,1.40
2022-08-30T13:31:00.213Z,1.33
2022-08-30T13:32:06.072Z,1.50
2022-08-30T13:33:11.335Z,1.23
2022-08-30T13:34:14.041Z,1.40
2022-08-30T13:35:15.767Z,1.45
2022-08-30T13:36:20.349Z,1.40
2022-08-30T13:38:49.722Z,1.00
2022-08-30T13:39:52.369Z,1.20
2022-08-30T13:40:54.896Z,1.40
2022-08-30T13:42:31.712Z,1.33
2022-08-30T13:43:20.374Z,1.30
2022-08-30T13:44:22.517Z,1.80
2022-08-30T13:46:54.150Z,1.20
2022-08-30T13:47:57.399Z,1.35
2022-08-30T13:49:04.747Z,1.55
2022-08-30T13:50:08.147Z,1.42
2022-08-30T13:51:11.713Z,1.15
2022-08-30T13:52:21.324Z,1.52
2022-08-30T13:54:49.970Z,1.00
2022-08-30T13:55:53.021Z,1.40
2022-08-30T13:56:55.376Z,1.00
2022-08-30T13:57:58.223Z,1.30
2022-08-30T13:59:00.144Z,2.03
2022-08-30T14:00:06.747Z,1.30
2022-08-30T14:01:09.503Z,1.30
2022-08-30T14:02:12.078Z,1.40
2022-08-30T14:03:14.962Z,1.30
2022-08-30T14:04:17.146Z,1.30
2022-08-30T14:05:46.922Z,1.40
2022-08-30T14:08:44.246Z,1.20
2022-08-30T14:09:31.211Z,1.35
2022-08-30T14:10:37.698Z,1.45
2022-08-30T14:11:48.451Z,1.23
2022-08-30T14:12:53.496Z,1.30
2022-08-30T14:15:19.228Z,1.60
2022-08-30T14:16:28.202Z,1.23
2022-08-30T14:17:32.728Z,1.55
2022-08-30T14:18:35.626Z,1.75
2022-08-30T14:19:39.768Z,1.42
2022-08-30T14:20:41.417Z,1.55
2022-08-30T14:21:49.087Z,1.40
2022-08-30T14:22:51.088Z,1.23
2022-08-30T14:23:55.906Z,1.33
2022-08-30T14:25:01.283Z,1.23
2022-08-30T14:26:05.197Z,1.25
2022-08-30T14:27:07.879Z,1.50
2022-08-30T14:28:09.888Z,1.45
2022-08-30T14:29:14.673Z,1.55
2022-08-30T14:30:21.006Z,1.63
2022-08-30T14:31:23.035Z,1.30
2022-08-30T14:32:25.879Z,1.45
2022-08-30T14:33:27.478Z,1.23
2022-08-30T14:34:30.954Z,1.30
2022-08-30T14:35:35.449Z,1.60
2022-08-30T14:36:39.401Z,1.20
2022-08-30T14:37:42.106Z,1.30
2022-08-30T14:38:43.948Z,1.60
2022-08-30T14:39:48.552Z,1.80